sensor_id;sensor_type;location;lat;lon;timestamp;pressure;altitude;pressure_sealevel;temperature;humidity
77725;BME280;66892;53.236;6.550;2024-02-23T00:01:04;98192.22;;;4.11;100.00
77725;BME280;66892;53.236;6.550;2024-02-23T00:03:30;98206.16;;;4.11;100.00
77725;BME280;66892;53.236;6.550;2024-02-23T00:05:58;98195.56;;;4.17;100.00
77725;BME280;66892;53.236;6.550;2024-02-23T00:08:26;98205.25;;;4.14;100.00
77725;BME280;66892;53.236;6.550;2024-02-23T00:10:52;98218.34;;;4.12;100.00
77725;BME280;66892;53.236;6.550;2024-02-23T00:13:18;98221.03;;;4.08;100.00
77725;BME280;66892;53.236;6.550;2024-02-23T00:15:44;98237.56;;;4.10;100.00
77725;BME280;66892;53.236;6.550;2024-02-23T00:18:10;98242.91;;;4.04;100.00
77725;BME280;66892;53.236;6.550;2024-02-23T00:20:37;98248.03;;;4.10;100.00
77725;BME280;66892;53.236;6.550;2024-02-23T00:23:03;98258.50;;;4.10;100.00
77725;BME280;66892;53.236;6.550;2024-02-23T00:25:31;98248.72;;;4.18;100.00
77725;BME280;66892;53.236;6.550;2024-02-23T00:27:57;98246.78;;;4.29;100.00
77725;BME280;66892;53.236;6.550;2024-02-23T00:30:23;98259.75;;;4.34;100.00
77725;BME280;66892;53.236;6.550;2024-02-23T00:32:49;98274.50;;;4.39;100.00
77725;BME280;66892;53.236;6.550;2024-02-23T00:35:15;98272.69;;;4.41;100.00
77725;BME280;66892;53.236;6.550;2024-02-23T00:37:41;98286.66;;;4.42;100.00
77725;BME280;66892;53.236;6.550;2024-02-23T00:40:08;98282.28;;;4.42;100.00
77725;BME280;66892;53.236;6.550;2024-02-23T00:42:36;98289.19;;;4.45;100.00
77725;BME280;66892;53.236;6.550;2024-02-23T00:45:03;98296.97;;;4.49;100.00
77725;BME280;66892;53.236;6.550;2024-02-23T00:47:29;98298.78;;;4.46;100.00
77725;BME280;66892;53.236;6.550;2024-02-23T00:49:55;98319.84;;;4.40;100.00
77725;BME280;66892;53.236;6.550;2024-02-23T00:52:21;98323.41;;;4.34;100.00
77725;BME280;66892;53.236;6.550;2024-02-23T00:54:47;98316.53;;;4.29;100.00
77725;BME280;66892;53.236;6.550;2024-02-23T00:57:13;98331.41;;;4.27;100.00
77725;BME280;66892;53.236;6.550;2024-02-23T00:59:40;98370.66;;;4.25;100.00
77725;BME280;66892;53.236;6.550;2024-02-23T01:02:06;98383.72;;;4.27;100.00
77725;BME280;66892;53.236;6.550;2024-02-23T01:04:32;98378.50;;;4.25;100.00
77725;BME280;66892;53.236;6.550;2024-02-23T01:06:58;98388.09;;;4.24;100.00
77725;BME280;66892;53.236;6.550;2024-02-23T01:09:25;98378.50;;;4.27;100.00
77725;BME280;66892;53.236;6.550;2024-02-23T01:11:51;98374.19;;;4.22;100.00
77725;BME280;66892;53.236;6.550;2024-02-23T01:14:17;98382.06;;;4.21;100.00
77725;BME280;66892;53.236;6.550;2024-02-23T01:16:45;98378.63;;;4.17;100.00
77725;BME280;66892;53.236;6.550;2024-02-23T01:19:11;98392.72;;;4.10;100.00
77725;BME280;66892;53.236;6.550;2024-02-23T01:21:37;98407.59;;;4.07;100.00
77725;BME280;66892;53.236;6.550;2024-02-23T01:24:03;98416.28;;;4.09;100.00
77725;BME280;66892;53.236;6.550;2024-02-23T01:26:30;98421.50;;;4.09;100.00
77725;BME280;66892;53.236;6.550;2024-02-23T01:28:56;98424.88;;;4.15;100.00
77725;BME280;66892;53.236;6.550;2024-02-23T01:31:22;98437.91;;;4.20;100.00
77725;BME280;66892;53.236;6.550;2024-02-23T01:33:49;98425.81;;;4.13;100.00
77725;BME280;66892;53.236;6.550;2024-02-23T01:36:17;98444.16;;;4.10;100.00
77725;BME280;66892;53.236;6.550;2024-02-23T01:38:43;98439.84;;;4.07;100.00
77725;BME280;66892;53.236;6.550;2024-02-23T01:41:10;98450.41;;;4.00;100.00
77725;BME280;66892;53.236;6.550;2024-02-23T01:43:37;98453.94;;;3.97;100.00
77725;BME280;66892;53.236;6.550;2024-02-23T01:46:04;98466.97;;;4.00;100.00
77725;BME280;66892;53.236;6.550;2024-02-23T01:48:31;98473.94;;;4.01;100.00
77725;BME280;66892;53.236;6.550;2024-02-23T01:50:59;98479.13;;;4.03;100.00
77725;BME280;66892;53.236;6.550;2024-02-23T01:53:27;98453.81;;;4.06;100.00
77725;BME280;66892;53.236;6.550;2024-02-23T01:55:53;98462.47;;;4.10;100.00
77725;BME280;66892;53.236;6.550;2024-02-23T01:58:20;98473.69;;;4.15;100.00
77725;BME280;66892;53.236;6.550;2024-02-23T02:00:46;98482.38;;;4.18;100.00
77725;BME280;66892;53.236;6.550;2024-02-23T02:03:12;98480.53;;;4.27;100.00
77725;BME280;66892;53.236;6.550;2024-02-23T02:05:39;98484.06;;;4.22;100.00
77725;BME280;66892;53.236;6.550;2024-02-23T02:08:07;98495.50;;;4.15;100.00
77725;BME280;66892;53.236;6.550;2024-02-23T02:10:33;98504.38;;;4.05;100.00
77725;BME280;66892;53.236;6.550;2024-02-23T02:13:02;98494.81;;;4.03;100.00
77725;BME280;66892;53.236;6.550;2024-02-23T02:15:28;98500.91;;;4.03;100.00
77725;BME280;66892;53.236;6.550;2024-02-23T02:17:54;98521.94;;;3.96;100.00
77725;BME280;66892;53.236;6.550;2024-02-23T02:20:24;98516.75;;;3.93;100.00
77725;BME280;66892;53.236;6.550;2024-02-23T02:22:50;98524.53;;;3.97;100.00
77725;BME280;66892;53.236;6.550;2024-02-23T02:25:18;98526.19;;;4.03;100.00
77725;BME280;66892;53.236;6.550;2024-02-23T02:27:44;98515.69;;;4.07;100.00
77725;BME280;66892;53.236;6.550;2024-02-23T02:30:11;98525.13;;;4.16;100.00
77725;BME280;66892;53.236;6.550;2024-02-23T02:32:38;98531.16;;;4.21;100.00
77725;BME280;66892;53.236;6.550;2024-02-23T02:35:04;98540.69;;;4.25;100.00
77725;BME280;66892;53.236;6.550;2024-02-23T02:37:30;98537.09;;;4.32;100.00
77725;BME280;66892;53.236;6.550;2024-02-23T02:39:56;98528.44;;;4.27;100.00
77725;BME280;66892;53.236;6.550;2024-02-23T02:42:24;98527.41;;;4.39;100.00
77725;BME280;66892;53.236;6.550;2024-02-23T02:44:50;98548.38;;;4.36;100.00
77725;BME280;66892;53.236;6.550;2024-02-23T02:47:16;98535.22;;;4.42;100.00
77725;BME280;66892;53.236;6.550;2024-02-23T02:49:42;98546.63;;;4.36;100.00
77725;BME280;66892;53.236;6.550;2024-02-23T02:52:08;98552.03;;;4.24;100.00
77725;BME280;66892;53.236;6.550;2024-02-23T02:54:34;98559.88;;;4.25;100.00
77725;BME280;66892;53.236;6.550;2024-02-23T02:57:00;98564.22;;;4.25;100.00
77725;BME280;66892;53.236;6.550;2024-02-23T02:59:28;98561.66;;;4.22;100.00
77725;BME280;66892;53.236;6.550;2024-02-23T03:01:54;98566.19;;;4.09;100.00
77725;BME280;66892;53.236;6.550;2024-02-23T03:04:20;98561.94;;;4.04;100.00
77725;BME280;66892;53.236;6.550;2024-02-23T03:06:46;98562.84;;;4.01;100.00
77725;BME280;66892;53.236;6.550;2024-02-23T03:09:12;98570.69;;;4.00;100.00
77725;BME280;66892;53.236;6.550;2024-02-23T03:11:38;98575.88;;;4.03;100.00
77725;BME280;66892;53.236;6.550;2024-02-23T03:14:05;98582.63;;;4.20;100.00
77725;BME280;66892;53.236;6.550;2024-02-23T03:16:32;98582.50;;;4.28;100.00
77725;BME280;66892;53.236;6.550;2024-02-23T03:19:00;98581.34;;;4.49;100.00
77725;BME280;66892;53.236;6.550;2024-02-23T03:21:26;98584.72;;;4.55;100.00
77725;BME280;66892;53.236;6.550;2024-02-23T03:23:52;98583.81;;;4.58;100.00
77725;BME280;66892;53.236;6.550;2024-02-23T03:26:18;98580.25;;;4.60;100.00
77725;BME280;66892;53.236;6.550;2024-02-23T03:28:44;98593.44;;;4.56;100.00
77725;BME280;66892;53.236;6.550;2024-02-23T03:31:10;98597.19;;;4.38;100.00
77725;BME280;66892;53.236;6.550;2024-02-23T03:33:37;98603.38;;;4.31;100.00
77725;BME280;66892;53.236;6.550;2024-02-23T03:36:04;98623.53;;;4.24;100.00
77725;BME280;66892;53.236;6.550;2024-02-23T03:38:31;98621.88;;;4.20;100.00
77725;BME280;66892;53.236;6.550;2024-02-23T03:40:59;98620.13;;;4.19;100.00
77725;BME280;66892;53.236;6.550;2024-02-23T03:43:26;98624.50;;;4.17;100.00
77725;BME280;66892;53.236;6.550;2024-02-23T03:45:53;98634.28;;;4.03;100.00
77725;BME280;66892;53.236;6.550;2024-02-23T03:48:19;98635.28;;;3.92;100.00
77725;BME280;66892;53.236;6.550;2024-02-23T03:50:46;98644.06;;;3.86;100.00
77725;BME280;66892;53.236;6.550;2024-02-23T03:53:12;98639.78;;;3.79;100.00
77725;BME280;66892;53.236;6.550;2024-02-23T03:55:38;98640.69;;;3.78;100.00
77725;BME280;66892;53.236;6.550;2024-02-23T03:58:04;98640.72;;;3.73;100.00
77725;BME280;66892;53.236;6.550;2024-02-23T04:00:30;98639.94;;;3.68;100.00
77725;BME280;66892;53.236;6.550;2024-02-23T04:02:56;98637.38;;;3.62;100.00
77725;BME280;66892;53.236;6.550;2024-02-23T04:05:22;98658.38;;;3.52;100.00
77725;BME280;66892;53.236;6.550;2024-02-23T04:07:50;98645.44;;;3.41;100.00
77725;BME280;66892;53.236;6.550;2024-02-23T04:10:16;98655.09;;;3.33;100.00
77725;BME280;66892;53.236;6.550;2024-02-23T04:12:42;98665.50;;;3.39;100.00
77725;BME280;66892;53.236;6.550;2024-02-23T04:15:09;98661.09;;;3.43;100.00
77725;BME280;66892;53.236;6.550;2024-02-23T04:17:35;98674.16;;;3.43;100.00
77725;BME280;66892;53.236;6.550;2024-02-23T04:20:05;98677.78;;;3.30;100.00
77725;BME280;66892;53.236;6.550;2024-02-23T04:22:32;98681.31;;;3.24;100.00
77725;BME280;66892;53.236;6.550;2024-02-23T04:24:59;98682.22;;;3.17;100.00
77725;BME280;66892;53.236;6.550;2024-02-23T04:27:25;98684.00;;;3.13;100.00
77725;BME280;66892;53.236;6.550;2024-02-23T04:29:51;98689.22;;;3.12;100.00
77725;BME280;66892;53.236;6.550;2024-02-23T04:32:17;98707.53;;;3.10;100.00
77725;BME280;66892;53.236;6.550;2024-02-23T04:34:43;98699.63;;;3.16;100.00
77725;BME280;66892;53.236;6.550;2024-02-23T04:37:09;98701.44;;;3.10;100.00
77725;BME280;66892;53.236;6.550;2024-02-23T04:39:35;98712.78;;;3.07;100.00
77725;BME280;66892;53.236;6.550;2024-02-23T04:42:02;98710.19;;;3.04;100.00
77725;BME280;66892;53.236;6.550;2024-02-23T04:44:28;98719.72;;;3.07;100.00
77725;BME280;66892;53.236;6.550;2024-02-23T04:46:54;98710.97;;;3.14;100.00
77725;BME280;66892;53.236;6.550;2024-02-23T04:49:20;98726.63;;;3.17;100.00
77725;BME280;66892;53.236;6.550;2024-02-23T04:51:46;98731.91;;;3.08;100.00
77725;BME280;66892;53.236;6.550;2024-02-23T04:54:12;98728.44;;;3.07;100.00
77725;BME280;66892;53.236;6.550;2024-02-23T04:56:39;98730.19;;;3.02;100.00
77725;BME280;66892;53.236;6.550;2024-02-23T04:59:06;98731.97;;;2.99;100.00
77725;BME280;66892;53.236;6.550;2024-02-23T05:01:35;98738.97;;;2.89;100.00
77725;BME280;66892;53.236;6.550;2024-02-23T05:04:02;98740.72;;;2.93;100.00
77725;BME280;66892;53.236;6.550;2024-02-23T05:06:29;98744.16;;;2.98;100.00
77725;BME280;66892;53.236;6.550;2024-02-23T05:08:55;98755.44;;;3.02;100.00
77725;BME280;66892;53.236;6.550;2024-02-23T05:11:21;98758.00;;;3.11;100.00
77725;BME280;66892;53.236;6.550;2024-02-23T05:13:47;98758.03;;;3.02;100.00
77725;BME280;66892;53.236;6.550;2024-02-23T05:16:15;98751.97;;;3.00;100.00
77725;BME280;66892;53.236;6.550;2024-02-23T05:18:41;98749.41;;;2.98;100.00
77725;BME280;66892;53.236;6.550;2024-02-23T05:21:07;98758.97;;;2.96;100.00
77725;BME280;66892;53.236;6.550;2024-02-23T05:23:34;98758.09;;;2.93;100.00
77725;BME280;66892;53.236;6.550;2024-02-23T05:26:00;98772.94;;;2.83;100.00
77725;BME280;66892;53.236;6.550;2024-02-23T05:28:25;98769.50;;;2.81;100.00
77725;BME280;66892;53.236;6.550;2024-02-23T05:30:52;98770.44;;;2.73;100.00
77725;BME280;66892;53.236;6.550;2024-02-23T05:33:19;98764.34;;;2.72;100.00
77725;BME280;66892;53.236;6.550;2024-02-23T05:35:46;98768.69;;;2.67;100.00
77725;BME280;66892;53.236;6.550;2024-02-23T05:38:14;98777.41;;;2.64;100.00
77725;BME280;66892;53.236;6.550;2024-02-23T05:40:40;98768.75;;;2.58;100.00
77725;BME280;66892;53.236;6.550;2024-02-23T05:43:06;98775.69;;;2.60;100.00
77725;BME280;66892;53.236;6.550;2024-02-23T05:45:32;98766.16;;;2.55;100.00
77725;BME280;66892;53.236;6.550;2024-02-23T05:47:59;98774.75;;;2.71;100.00
77725;BME280;66892;53.236;6.550;2024-02-23T05:50:26;98768.63;;;2.81;100.00
77725;BME280;66892;53.236;6.550;2024-02-23T05:52:52;98778.19;;;2.83;100.00
77725;BME280;66892;53.236;6.550;2024-02-23T05:55:19;98782.44;;;3.01;100.00
77725;BME280;66892;53.236;6.550;2024-02-23T05:57:45;98794.50;;;3.15;100.00
77725;BME280;66892;53.236;6.550;2024-02-23T06:00:11;98793.59;;;3.24;100.00
77725;BME280;66892;53.236;6.550;2024-02-23T06:02:38;98790.13;;;3.24;100.00
77725;BME280;66892;53.236;6.550;2024-02-23T06:05:05;98802.38;;;3.12;100.00
77725;BME280;66892;53.236;6.550;2024-02-23T06:07:34;98799.78;;;3.11;100.00
77725;BME280;66892;53.236;6.550;2024-02-23T06:10:00;98795.41;;;3.11;100.00
77725;BME280;66892;53.236;6.550;2024-02-23T06:12:26;98791.09;;;3.07;100.00
77725;BME280;66892;53.236;6.550;2024-02-23T06:14:53;98791.09;;;3.10;100.00
77725;BME280;66892;53.236;6.550;2024-02-23T06:17:21;98789.34;;;3.09;100.00
77725;BME280;66892;53.236;6.550;2024-02-23T06:19:48;98804.16;;;3.07;100.00
77725;BME280;66892;53.236;6.550;2024-02-23T06:22:14;98807.63;;;3.08;100.00
77725;BME280;66892;53.236;6.550;2024-02-23T06:24:44;98797.16;;;3.14;100.00
77725;BME280;66892;53.236;6.550;2024-02-23T06:27:10;98805.84;;;3.17;100.00
77725;BME280;66892;53.236;6.550;2024-02-23T06:29:36;98807.56;;;3.18;100.00
77725;BME280;66892;53.236;6.550;2024-02-23T06:32:02;98818.91;;;3.13;100.00
77725;BME280;66892;53.236;6.550;2024-02-23T06:34:28;98828.53;;;3.08;100.00
77725;BME280;66892;53.236;6.550;2024-02-23T06:36:55;98819.84;;;3.04;100.00
77725;BME280;66892;53.236;6.550;2024-02-23T06:39:21;98820.72;;;3.03;100.00
77725;BME280;66892;53.236;6.550;2024-02-23T06:41:48;98825.03;;;3.09;100.00
77725;BME280;66892;53.236;6.550;2024-02-23T06:44:14;98828.50;;;3.11;100.00
77725;BME280;66892;53.236;6.550;2024-02-23T06:46:40;98813.72;;;3.10;100.00
77725;BME280;66892;53.236;6.550;2024-02-23T06:49:06;98831.97;;;3.13;100.00
77725;BME280;66892;53.236;6.550;2024-02-23T06:51:32;98838.84;;;3.31;100.00
77725;BME280;66892;53.236;6.550;2024-02-23T06:53:58;98824.81;;;3.42;100.00
77725;BME280;66892;53.236;6.550;2024-02-23T06:56:24;98837.78;;;3.54;100.00
77725;BME280;66892;53.236;6.550;2024-02-23T06:58:52;98845.56;;;3.65;100.00
77725;BME280;66892;53.236;6.550;2024-02-23T07:01:20;98856.78;;;3.76;100.00
77725;BME280;66892;53.236;6.550;2024-02-23T07:03:46;98847.09;;;3.86;100.00
77725;BME280;66892;53.236;6.550;2024-02-23T07:06:14;98850.53;;;3.92;100.00
77725;BME280;66892;53.236;6.550;2024-02-23T07:08:44;98849.63;;;4.01;100.00
77725;BME280;66892;53.236;6.550;2024-02-23T07:11:10;98856.63;;;3.96;100.00
77725;BME280;66892;53.236;6.550;2024-02-23T07:13:36;98846.25;;;3.82;100.00
77725;BME280;66892;53.236;6.550;2024-02-23T07:16:05;98849.88;;;3.69;100.00
77725;BME280;66892;53.236;6.550;2024-02-23T07:18:31;98856.06;;;3.57;100.00
77725;BME280;66892;53.236;6.550;2024-02-23T07:20:58;98854.34;;;3.50;100.00
77725;BME280;66892;53.236;6.550;2024-02-23T07:23:24;98858.63;;;3.63;100.00
77725;BME280;66892;53.236;6.550;2024-02-23T07:25:50;98864.63;;;3.76;100.00
77725;BME280;66892;53.236;6.550;2024-02-23T07:28:16;98868.00;;;3.90;100.00
77725;BME280;66892;53.236;6.550;2024-02-23T07:30:45;98873.06;;;4.08;100.00
77725;BME280;66892;53.236;6.550;2024-02-23T07:33:13;98878.19;;;4.19;100.00
77725;BME280;66892;53.236;6.550;2024-02-23T07:35:39;98872.84;;;4.33;100.00
77725;BME280;66892;53.236;6.550;2024-02-23T07:38:05;98883.22;;;4.42;100.00
77725;BME280;66892;53.236;6.550;2024-02-23T07:40:31;98883.03;;;4.58;100.00
77725;BME280;66892;53.236;6.550;2024-02-23T07:42:57;98884.66;;;4.71;100.00
77725;BME280;66892;53.236;6.550;2024-02-23T07:45:23;98887.25;;;4.73;100.00
77725;BME280;66892;53.236;6.550;2024-02-23T07:47:49;98888.94;;;4.77;100.00
77725;BME280;66892;53.236;6.550;2024-02-23T07:50:17;98887.97;;;4.87;100.00
77725;BME280;66892;53.236;6.550;2024-02-23T07:52:44;98897.44;;;4.97;100.00
77725;BME280;66892;53.236;6.550;2024-02-23T07:55:10;98890.25;;;5.11;100.00
77725;BME280;66892;53.236;6.550;2024-02-23T07:57:36;98891.13;;;5.13;100.00
77725;BME280;66892;53.236;6.550;2024-02-23T08:00:06;98893.78;;;5.07;100.00
77725;BME280;66892;53.236;6.550;2024-02-23T08:02:35;98903.47;;;5.02;100.00
77725;BME280;66892;53.236;6.550;2024-02-23T08:05:01;98904.50;;;4.89;100.00
77725;BME280;66892;53.236;6.550;2024-02-23T08:07:29;98900.25;;;4.79;100.00
77725;BME280;66892;53.236;6.550;2024-02-23T08:09:56;98909.09;;;4.69;100.00
77725;BME280;66892;53.236;6.550;2024-02-23T08:12:23;98904.66;;;4.77;100.00
77725;BME280;66892;53.236;6.550;2024-02-23T08:14:49;98900.06;;;4.96;100.00
77725;BME280;66892;53.236;6.550;2024-02-23T08:17:19;98922.66;;;5.04;100.00
77725;BME280;66892;53.236;6.550;2024-02-23T08:19:46;98913.88;;;5.08;100.00
77725;BME280;66892;53.236;6.550;2024-02-23T08:22:12;98922.56;;;5.12;100.00
77725;BME280;66892;53.236;6.550;2024-02-23T08:24:39;98912.97;;;5.12;100.00
77725;BME280;66892;53.236;6.550;2024-02-23T08:27:05;98912.00;;;5.19;100.00
77725;BME280;66892;53.236;6.550;2024-02-23T08:29:31;98919.88;;;5.19;100.00
77725;BME280;66892;53.236;6.550;2024-02-23T08:31:57;98910.97;;;5.31;100.00
77725;BME280;66892;53.236;6.550;2024-02-23T08:34:23;98901.31;;;5.33;100.00
77725;BME280;66892;53.236;6.550;2024-02-23T08:36:50;98901.31;;;5.35;100.00
77725;BME280;66892;53.236;6.550;2024-02-23T08:39:17;98905.66;;;5.37;100.00
77725;BME280;66892;53.236;6.550;2024-02-23T08:41:44;98907.31;;;5.43;100.00
77725;BME280;66892;53.236;6.550;2024-02-23T08:44:10;98901.22;;;5.41;100.00
77725;BME280;66892;53.236;6.550;2024-02-23T08:46:36;98902.06;;;5.43;100.00
77725;BME280;66892;53.236;6.550;2024-02-23T08:49:05;98904.69;;;5.43;100.00
77725;BME280;66892;53.236;6.550;2024-02-23T08:51:31;98900.31;;;5.43;100.00
77725;BME280;66892;53.236;6.550;2024-02-23T08:53:57;98894.19;;;5.43;100.00
77725;BME280;66892;53.236;6.550;2024-02-23T08:56:28;98895.94;;;5.44;100.00
77725;BME280;66892;53.236;6.550;2024-02-23T08:58:56;98881.94;;;5.46;100.00
77725;BME280;66892;53.236;6.550;2024-02-23T09:01:22;98899.31;;;5.53;100.00
77725;BME280;66892;53.236;6.550;2024-02-23T09:03:48;98886.16;;;5.58;100.00
77725;BME280;66892;53.236;6.550;2024-02-23T09:06:14;98891.97;;;5.75;100.00
77725;BME280;66892;53.236;6.550;2024-02-23T09:08:40;98879.56;;;5.91;100.00
77725;BME280;66892;53.236;6.550;2024-02-23T09:11:06;98880.22;;;6.03;100.00
77725;BME280;66892;53.236;6.550;2024-02-23T09:13:32;98884.31;;;6.19;100.00
77725;BME280;66892;53.236;6.550;2024-02-23T09:16:00;98884.00;;;6.38;100.00
77725;BME280;66892;53.236;6.550;2024-02-23T09:18:26;98879.50;;;6.43;100.00
77725;BME280;66892;53.236;6.550;2024-02-23T09:20:52;98870.88;;;6.38;100.00
77725;BME280;66892;53.236;6.550;2024-02-23T09:23:18;98893.69;;;6.34;100.00
77725;BME280;66892;53.236;6.550;2024-02-23T09:25:44;98898.22;;;6.26;100.00
77725;BME280;66892;53.236;6.550;2024-02-23T09:28:11;98899.09;;;6.23;100.00
77725;BME280;66892;53.236;6.550;2024-02-23T09:30:37;98899.09;;;6.23;100.00
77725;BME280;66892;53.236;6.550;2024-02-23T09:33:05;98905.22;;;6.25;100.00
77725;BME280;66892;53.236;6.550;2024-02-23T09:35:31;98897.19;;;6.34;100.00
77725;BME280;66892;53.236;6.550;2024-02-23T09:37:57;98910.09;;;6.47;100.00
77725;BME280;66892;53.236;6.550;2024-02-23T09:40:23;98917.19;;;6.42;100.00
77725;BME280;66892;53.236;6.550;2024-02-23T09:42:53;98914.63;;;6.37;100.00
77725;BME280;66892;53.236;6.550;2024-02-23T09:45:21;98916.50;;;6.30;100.00
77725;BME280;66892;53.236;6.550;2024-02-23T09:47:47;98916.59;;;6.24;100.00
77725;BME280;66892;53.236;6.550;2024-02-23T09:50:16;98914.78;;;6.26;100.00
77725;BME280;66892;53.236;6.550;2024-02-23T09:52:43;98919.22;;;6.24;100.00
77725;BME280;66892;53.236;6.550;2024-02-23T09:55:09;98930.53;;;6.26;100.00
77725;BME280;66892;53.236;6.550;2024-02-23T09:57:36;98919.75;;;6.43;100.00
77725;BME280;66892;53.236;6.550;2024-02-23T10:00:03;98917.66;;;6.62;100.00
77725;BME280;66892;53.236;6.550;2024-02-23T10:02:32;98917.28;;;6.83;100.00
77725;BME280;66892;53.236;6.550;2024-02-23T10:05:00;98902.78;;;7.08;100.00
77725;BME280;66892;53.236;6.550;2024-02-23T10:07:28;98898.00;;;7.27;100.00
77725;BME280;66892;53.236;6.550;2024-02-23T10:09:54;98894.28;;;7.37;100.00
77725;BME280;66892;53.236;6.550;2024-02-23T10:12:23;98901.22;;;7.41;100.00
77725;BME280;66892;53.236;6.550;2024-02-23T10:14:49;98896.19;;;7.69;100.00
77725;BME280;66892;53.236;6.550;2024-02-23T10:17:15;98899.09;;;7.93;100.00
77725;BME280;66892;53.236;6.550;2024-02-23T10:19:41;98902.31;;;8.06;100.00
77725;BME280;66892;53.236;6.550;2024-02-23T10:22:07;98915.06;;;8.24;100.00
77725;BME280;66892;53.236;6.550;2024-02-23T10:24:36;98903.56;;;8.27;100.00
77725;BME280;66892;53.236;6.550;2024-02-23T10:27:03;98907.47;;;8.12;98.45
77725;BME280;66892;53.236;6.550;2024-02-23T10:29:30;98906.41;;;7.82;98.09
77725;BME280;66892;53.236;6.550;2024-02-23T10:31:57;98913.94;;;7.61;98.69
77725;BME280;66892;53.236;6.550;2024-02-23T10:34:24;98926.38;;;7.53;98.69
77725;BME280;66892;53.236;6.550;2024-02-23T10:36:51;98916.78;;;7.50;100.00
77725;BME280;66892;53.236;6.550;2024-02-23T10:39:18;98922.25;;;7.39;100.00
77725;BME280;66892;53.236;6.550;2024-02-23T10:41:47;98915.84;;;7.11;100.00
77725;BME280;66892;53.236;6.550;2024-02-23T10:44:16;98929.94;;;7.07;100.00
77725;BME280;66892;53.236;6.550;2024-02-23T10:46:44;98927.50;;;6.98;100.00
77725;BME280;66892;53.236;6.550;2024-02-23T10:49:11;98936.38;;;6.93;100.00
77725;BME280;66892;53.236;6.550;2024-02-23T10:51:39;98932.88;;;6.90;100.00
77725;BME280;66892;53.236;6.550;2024-02-23T10:54:06;98927.75;;;6.86;100.00
77725;BME280;66892;53.236;6.550;2024-02-23T10:56:33;98941.94;;;6.77;100.00
77725;BME280;66892;53.236;6.550;2024-02-23T10:59:00;98935.75;;;6.80;100.00
77725;BME280;66892;53.236;6.550;2024-02-23T11:01:26;98940.81;;;6.89;100.00
77725;BME280;66892;53.236;6.550;2024-02-23T11:03:53;98944.44;;;6.83;100.00
77725;BME280;66892;53.236;6.550;2024-02-23T11:06:20;98939.31;;;6.76;100.00
77725;BME280;66892;53.236;6.550;2024-02-23T11:08:53;98933.47;;;6.60;100.00
77725;BME280;66892;53.236;6.550;2024-02-23T11:11:19;98937.13;;;6.52;100.00
77725;BME280;66892;53.236;6.550;2024-02-23T11:13:46;98952.91;;;6.49;100.00
77725;BME280;66892;53.236;6.550;2024-02-23T11:16:21;98939.00;;;6.45;100.00
77725;BME280;66892;53.236;6.550;2024-02-23T11:18:48;98945.25;;;6.38;100.00
77725;BME280;66892;53.236;6.550;2024-02-23T11:21:14;98944.44;;;6.33;100.00
77725;BME280;66892;53.236;6.550;2024-02-23T11:23:40;98944.53;;;6.27;100.00
77725;BME280;66892;53.236;6.550;2024-02-23T11:26:09;98955.13;;;6.22;100.00
77725;BME280;66892;53.236;6.550;2024-02-23T11:28:42;98952.50;;;6.21;100.00
77725;BME280;66892;53.236;6.550;2024-02-23T11:31:12;98955.28;;;6.12;100.00
77725;BME280;66892;53.236;6.550;2024-02-23T11:33:39;98960.66;;;6.04;100.00
77725;BME280;66892;53.236;6.550;2024-02-23T11:36:06;98966.91;;;5.97;100.00
77725;BME280;66892;53.236;6.550;2024-02-23T11:38:32;98966.94;;;5.93;100.00
77725;BME280;66892;53.236;6.550;2024-02-23T11:40:59;98970.50;;;5.90;100.00
77725;BME280;66892;53.236;6.550;2024-02-23T11:43:26;98964.38;;;5.90;100.00
77725;BME280;66892;53.236;6.550;2024-02-23T11:45:52;98960.78;;;5.97;100.00
77725;BME280;66892;53.236;6.550;2024-02-23T11:48:18;98949.38;;;5.99;100.00
77725;BME280;66892;53.236;6.550;2024-02-23T11:50:47;98961.56;;;6.02;100.00
77725;BME280;66892;53.236;6.550;2024-02-23T11:53:14;98966.91;;;5.97;100.00
77725;BME280;66892;53.236;6.550;2024-02-23T11:55:40;98947.53;;;6.06;100.00
77725;BME280;66892;53.236;6.550;2024-02-23T11:58:06;98957.09;;;6.08;100.00
77725;BME280;66892;53.236;6.550;2024-02-23T12:00:33;98959.59;;;6.16;100.00
77725;BME280;66892;53.236;6.550;2024-02-23T12:03:01;98954.09;;;6.31;100.00
77725;BME280;66892;53.236;6.550;2024-02-23T12:05:27;98961.03;;;6.35;100.00
77725;BME280;66892;53.236;6.550;2024-02-23T12:07:55;98960.13;;;6.38;100.00
77725;BME280;66892;53.236;6.550;2024-02-23T12:10:23;98955.63;;;6.44;100.00
77725;BME280;66892;53.236;6.550;2024-02-23T12:12:49;98964.22;;;6.54;100.00
77725;BME280;66892;53.236;6.550;2024-02-23T12:15:15;98965.94;;;6.56;100.00
77725;BME280;66892;53.236;6.550;2024-02-23T12:17:46;98970.25;;;6.59;100.00
77725;BME280;66892;53.236;6.550;2024-02-23T12:20:13;98957.16;;;6.57;100.00
77725;BME280;66892;53.236;6.550;2024-02-23T12:22:40;98956.28;;;6.57;100.00
77725;BME280;66892;53.236;6.550;2024-02-23T12:25:08;98972.00;;;6.58;100.00
77725;BME280;66892;53.236;6.550;2024-02-23T12:27:34;98965.75;;;6.67;100.00
77725;BME280;66892;53.236;6.550;2024-02-23T12:30:00;98962.19;;;6.71;100.00
77725;BME280;66892;53.236;6.550;2024-02-23T12:32:26;98960.41;;;6.71;100.00
77725;BME280;66892;53.236;6.550;2024-02-23T12:34:52;98975.31;;;6.71;100.00
77725;BME280;66892;53.236;6.550;2024-02-23T12:37:18;98971.88;;;6.66;100.00
77725;BME280;66892;53.236;6.550;2024-02-23T12:39:45;98971.00;;;6.65;100.00
77725;BME280;66892;53.236;6.550;2024-02-23T12:42:12;98965.75;;;6.65;100.00
77725;BME280;66892;53.236;6.550;2024-02-23T12:44:38;98972.72;;;6.68;100.00
77725;BME280;66892;53.236;6.550;2024-02-23T12:47:04;98962.25;;;6.66;100.00
77725;BME280;66892;53.236;6.550;2024-02-23T12:49:30;98972.69;;;6.71;100.00
77725;BME280;66892;53.236;6.550;2024-02-23T12:51:56;98962.06;;;6.77;100.00
77725;BME280;66892;53.236;6.550;2024-02-23T12:54:22;98962.84;;;6.82;100.00
77725;BME280;66892;53.236;6.550;2024-02-23T12:56:48;98963.72;;;6.81;100.00